Aérodrome :
LOGIN :

S'inscrire | Disclaimer

   EN    FR    IT 

 










Légende :    VFR   VFR Marginal   IFR   IFR Intensif   IFR Très Intensif
Visi : 
Plafond : 
>= 8 km
>= 3000ft
5 à 8 km
1000 à 3000 ft
1500m à 5 km
500 à 1000 ft
800 à 1500m
200 à 500 ft
< 800m
< 200 ft
Symboles :   Orages  Brouillard  Fortes neiges  Fortes précipitations  Vent > 20 kt
SIGMETs :   Divers  Orages  Givrage  Turbulence  Onde Orograph.  Cendres Volcan.






- Altitude de l'aérodrome : 299 ft
- Code IATA : EDM


LFRI - La Roche Sur Yon - Les Ajoncs

DERNIER METAR :
  • 140530Z AUTO 25004KT 9999 FEW029 17/15 Q1016 NOSIG

METARs EXPIRÉS :
  • 140500Z AUTO 25004KT 220V290 9999 OVC025 18/16 Q1016
  • 140430Z AUTO 26004KT 9999 OVC020 18/17 Q1016
  • 140400Z AUTO 25004KT 220V290 9999 OVC018 18/17 Q1016
  • 140330Z AUTO 25003KT 220V290 9999 OVC018 18/17 Q1016
  • 140300Z AUTO 25005KT 220V280 9999 BKN019 OVC029 18/17 Q1016

TAF TAF LFRI
Valide du 14 à 06h jusqu'au 15 à 06h UTC


140500Z 1406/1506 26006KT 9999 BKN025
BECMG 1421/1424 VRB03KT
PROB30
TEMPO 1502/1506 0400 FG VV///



MET'MAP, la Météo Aéronautique d'un coup d'oeil ! - Copyright ORBIFLY Décembre 2007 - Disclaimer

ORBIFLY MET'MAP TEAM :

Programmation & Développement : Alexandra Zaïnal
Sur une idée originale de : Baudouin d'Aumeries
Assistance à la programmation : Marc-Olivier Méhu
Soutien technique & logistique : Manuel Goepfert

Contact : metmap@orbifly.com




SOURCES & CREDITS :

   NOAA